createdAt,value
2024-02-28T00:03:24.866Z,9.80
2024-02-28T00:05:52.018Z,10.10
2024-02-28T00:08:21.413Z,10.30
2024-02-28T00:10:48.381Z,9.70
2024-02-28T00:13:16.902Z,9.90
2024-02-28T00:15:45.952Z,9.90
2024-02-28T00:18:15.430Z,9.70
2024-02-28T00:20:55.389Z,9.80
2024-02-28T00:23:23.105Z,9.80
2024-02-28T00:25:49.937Z,10.00
2024-02-28T00:28:16.680Z,9.90
2024-02-28T00:30:46.215Z,9.70
2024-02-28T00:33:13.280Z,9.80
2024-02-28T00:35:42.997Z,9.70
2024-02-28T00:40:37.280Z,9.60
2024-02-28T00:43:04.342Z,9.80
2024-02-28T00:45:31.104Z,9.70
2024-02-28T00:47:57.953Z,9.40
2024-02-28T00:50:24.912Z,9.70
2024-02-28T00:52:51.874Z,9.70
2024-02-28T00:55:19.850Z,9.60
2024-02-28T00:57:49.197Z,9.50
2024-02-28T01:00:16.532Z,9.50
2024-02-28T01:02:45.880Z,9.50
2024-02-28T01:05:12.920Z,9.60
2024-02-28T01:07:39.921Z,9.70
2024-02-28T01:10:08.134Z,9.40
2024-02-28T01:12:35.725Z,9.60
2024-02-28T01:15:02.525Z,9.50
2024-02-28T01:17:29.328Z,9.40
2024-02-28T01:19:56.315Z,9.50
2024-02-28T01:22:23.144Z,9.80
2024-02-28T01:24:50.116Z,9.50
2024-02-28T01:27:18.249Z,9.70
2024-02-28T01:29:45.145Z,9.50
2024-02-28T01:32:15.118Z,9.50
2024-02-28T01:34:44.073Z,9.40
2024-02-28T01:37:11.042Z,9.60
2024-02-28T01:42:05.316Z,9.50
2024-02-28T01:44:32.085Z,9.20
2024-02-28T01:46:59.507Z,9.40
2024-02-28T01:49:26.671Z,9.50
2024-02-28T01:51:55.576Z,9.50
2024-02-28T01:54:22.782Z,9.50
2024-02-28T01:56:50.228Z,9.50
2024-02-28T01:59:18.904Z,9.60
2024-02-28T02:01:47.163Z,9.50
2024-02-28T02:04:13.954Z,9.50
2024-02-28T02:06:44.969Z,9.50
2024-02-28T02:09:12.433Z,9.50
2024-02-28T02:11:40.711Z,9.50
2024-02-28T02:14:07.685Z,9.50
2024-02-28T02:16:34.377Z,9.50
2024-02-28T02:19:01.277Z,9.50
2024-02-28T02:21:32.107Z,9.40
2024-02-28T02:23:58.822Z,9.50
2024-02-28T02:26:25.830Z,9.70
2024-02-28T02:28:55.090Z,9.60
2024-02-28T02:31:24.072Z,9.30
2024-02-28T02:33:53.404Z,9.40
2024-02-28T02:36:20.365Z,9.40
2024-02-28T02:38:47.163Z,9.10
2024-02-28T02:41:14.096Z,9.50
2024-02-28T02:43:43.615Z,9.40
2024-02-28T02:46:10.531Z,9.60
2024-02-28T02:48:38.181Z,9.40
2024-02-28T02:51:05.088Z,9.40
2024-02-28T02:53:31.848Z,9.30
2024-02-28T02:55:58.719Z,9.30
2024-02-28T02:58:25.536Z,9.40
2024-02-28T03:00:52.331Z,9.30
2024-02-28T03:03:19.149Z,9.30
2024-02-28T03:05:45.913Z,9.40
2024-02-28T03:08:12.661Z,9.40
2024-02-28T03:10:44.224Z,9.30
2024-02-28T03:13:11.097Z,9.40
2024-02-28T03:15:40.520Z,9.20
2024-02-28T03:18:07.412Z,9.50
2024-02-28T03:20:34.221Z,9.00
2024-02-28T03:25:29.277Z,9.20
2024-02-28T03:30:25.889Z,9.30
2024-02-28T03:32:52.691Z,9.30
2024-02-28T03:35:19.383Z,9.40
2024-02-28T03:37:48.278Z,9.30
2024-02-28T03:40:16.151Z,9.10
2024-02-28T03:42:45.340Z,9.30
2024-02-28T03:45:14.475Z,9.40
2024-02-28T03:47:41.229Z,9.40
2024-02-28T03:50:08.629Z,9.30
2024-02-28T03:52:35.529Z,9.40
2024-02-28T03:55:06.879Z,9.20
2024-02-28T03:57:35.846Z,9.30
2024-02-28T04:00:03.787Z,9.30
2024-02-28T04:02:30.530Z,9.20
2024-02-28T04:04:59.385Z,9.80
2024-02-28T04:07:28.235Z,9.30
2024-02-28T04:09:55.046Z,9.30
2024-02-28T04:12:21.828Z,9.20
2024-02-28T04:14:48.639Z,9.30
2024-02-28T04:19:45.035Z,9.30
2024-02-28T04:22:11.754Z,9.30
2024-02-28T04:24:38.489Z,9.30
2024-02-28T04:27:06.826Z,9.30
2024-02-28T04:29:36.088Z,9.20
2024-02-28T04:32:05.063Z,9.30
2024-02-28T04:34:31.788Z,9.30
2024-02-28T04:36:58.517Z,9.30
2024-02-28T04:39:25.342Z,9.30
2024-02-28T04:41:52.136Z,9.30
2024-02-28T04:44:18.839Z,9.70
2024-02-28T04:46:49.960Z,9.20
2024-02-28T04:49:16.820Z,9.20
2024-02-28T04:51:43.548Z,9.10
2024-02-28T04:54:10.254Z,9.50
2024-02-28T04:56:43.686Z,9.20
2024-02-28T04:59:12.773Z,9.10
2024-02-28T05:04:08.058Z,9.20
2024-02-28T05:06:37.635Z,9.20
2024-02-28T05:09:05.973Z,9.10
2024-02-28T05:11:35.483Z,9.20
2024-02-28T05:14:02.401Z,9.30
2024-02-28T05:16:31.591Z,9.20
2024-02-28T05:18:58.461Z,9.20
2024-02-28T05:21:29.915Z,9.20
2024-02-28T05:23:56.811Z,9.20
2024-02-28T05:26:23.602Z,10.30
2024-02-28T05:28:52.501Z,9.10
2024-02-28T05:31:28.307Z,9.20
2024-02-28T05:33:59.543Z,9.20
2024-02-28T05:36:31.034Z,9.20
2024-02-28T05:39:02.192Z,9.10
2024-02-28T05:41:31.327Z,9.60
2024-02-28T05:44:00.247Z,9.10
2024-02-28T05:46:26.970Z,8.80
2024-02-28T05:48:56.168Z,9.10
2024-02-28T05:51:25.179Z,9.20
2024-02-28T05:53:54.418Z,9.10
2024-02-28T05:56:22.417Z,9.00
2024-02-28T05:58:49.417Z,8.90
2024-02-28T06:01:18.606Z,9.00
2024-02-28T06:03:49.551Z,9.10
2024-02-28T06:06:19.264Z,9.00
2024-02-28T06:08:46.283Z,9.00
2024-02-28T06:11:13.056Z,9.00
2024-02-28T06:13:44.694Z,9.20
2024-02-28T06:16:20.185Z,8.90
2024-02-28T06:18:49.503Z,9.40
2024-02-28T06:21:22.766Z,9.00
2024-02-28T06:23:49.526Z,8.90
2024-02-28T06:26:19.139Z,9.00
2024-02-28T06:28:48.832Z,9.10
2024-02-28T06:31:21.666Z,8.80
2024-02-28T06:33:48.423Z,9.00
2024-02-28T06:36:15.646Z,9.00
2024-02-28T06:38:42.972Z,9.00
2024-02-28T06:41:14.440Z,9.60
2024-02-28T06:43:41.186Z,9.10
2024-02-28T06:46:10.648Z,9.20
2024-02-28T06:48:41.951Z,9.20
2024-02-28T06:51:08.736Z,9.90
2024-02-28T06:56:05.311Z,9.30
2024-02-28T07:01:01.438Z,9.40
2024-02-28T07:03:29.345Z,9.50
2024-02-28T07:05:56.230Z,9.70
2024-02-28T07:08:23.041Z,9.70
2024-02-28T07:10:55.148Z,9.50
2024-02-28T07:13:24.847Z,9.80
2024-02-28T07:15:55.710Z,9.80
2024-02-28T07:18:22.640Z,9.80
2024-02-28T07:20:49.364Z,10.00
2024-02-28T07:23:16.100Z,9.90
2024-02-28T07:25:42.934Z,9.50
2024-02-28T07:28:09.776Z,9.80
2024-02-28T07:30:36.913Z,9.80
2024-02-28T07:33:06.603Z,9.90
2024-02-28T07:38:00.488Z,10.20
2024-02-28T07:40:28.814Z,9.90
2024-02-28T07:42:55.559Z,9.90
2024-02-28T07:47:49.538Z,10.20
2024-02-28T07:50:17.381Z,10.10
2024-02-28T07:52:46.299Z,10.20
2024-02-28T07:55:13.113Z,10.40
2024-02-28T07:57:42.085Z,10.20
2024-02-28T08:00:09.213Z,10.00
2024-02-28T08:02:40.257Z,10.10
2024-02-28T08:05:09.694Z,10.20
2024-02-28T08:07:36.428Z,10.20
2024-02-28T08:10:07.041Z,10.20
2024-02-28T08:12:33.978Z,10.40
2024-02-28T08:15:00.743Z,10.30
2024-02-28T08:17:27.526Z,10.40
2024-02-28T08:19:56.728Z,10.80
2024-02-28T08:22:26.622Z,10.70
2024-02-28T08:24:53.682Z,10.60
2024-02-28T08:27:22.004Z,10.80
2024-02-28T08:29:48.823Z,10.80
2024-02-28T08:32:15.565Z,10.70
2024-02-28T08:34:47.219Z,10.80
2024-02-28T08:37:17.023Z,10.90
2024-02-28T08:42:13.493Z,10.90
2024-02-28T08:44:42.950Z,10.90
2024-02-28T08:49:40.631Z,10.90
2024-02-28T08:52:07.561Z,10.90
2024-02-28T08:54:36.777Z,10.90
2024-02-28T08:57:08.620Z,11.10
2024-02-28T08:59:35.351Z,10.90
2024-02-28T09:04:29.874Z,10.80
2024-02-28T09:09:24.447Z,11.00
2024-02-28T09:11:54.644Z,11.20
2024-02-28T09:14:21.438Z,11.10
2024-02-28T09:16:48.936Z,11.20
2024-02-28T09:19:15.687Z,11.40
2024-02-28T09:21:44.703Z,11.30
2024-02-28T09:24:13.942Z,11.30
2024-02-28T09:29:08.387Z,11.40
2024-02-28T09:31:35.169Z,11.50
2024-02-28T09:34:08.571Z,11.60
2024-02-28T09:36:42.896Z,12.50
2024-02-28T09:39:12.332Z,11.70
2024-02-28T09:41:42.317Z,11.50
2024-02-28T09:46:36.696Z,11.60
2024-02-28T09:49:06.864Z,11.70
2024-02-28T09:51:39.584Z,11.70
2024-02-28T09:54:09.856Z,12.00
2024-02-28T09:56:39.124Z,11.70
2024-02-28T09:59:09.319Z,11.80
2024-02-28T10:01:43.184Z,11.90
2024-02-28T10:04:14.856Z,12.20
2024-02-28T10:06:42.363Z,12.10
2024-02-28T10:09:09.167Z,12.90
2024-02-28T10:16:30.824Z,12.30
2024-02-28T10:19:00.109Z,12.30
2024-02-28T10:21:33.979Z,12.30
2024-02-28T10:24:04.298Z,12.40
2024-02-28T10:26:36.891Z,12.40
2024-02-28T10:29:11.368Z,12.40
2024-02-28T10:34:10.729Z,12.60
2024-02-28T10:36:41.756Z,12.70
2024-02-28T10:39:10.996Z,12.80
2024-02-28T10:41:39.349Z,12.80
2024-02-28T10:44:06.173Z,12.90
2024-02-28T10:46:36.385Z,12.70
2024-02-28T10:49:07.442Z,13.90
2024-02-28T10:51:38.303Z,13.00
2024-02-28T10:54:13.396Z,13.00
2024-02-28T10:56:41.982Z,13.10
2024-02-28T10:59:11.750Z,13.10
2024-02-28T11:01:43.429Z,13.20
2024-02-28T11:04:13.836Z,13.30
2024-02-28T11:06:56.697Z,13.40
2024-02-28T11:11:52.751Z,13.40
2024-02-28T11:14:32.114Z,13.60
2024-02-28T11:17:07.084Z,13.60
2024-02-28T11:19:37.132Z,13.60
2024-02-28T11:22:06.986Z,13.80
2024-02-28T11:24:40.685Z,13.90
2024-02-28T11:27:07.912Z,13.80
2024-02-28T11:29:34.906Z,13.80
2024-02-28T11:32:01.657Z,14.00
2024-02-28T11:34:29.297Z,13.90
2024-02-28T11:36:56.972Z,13.90
2024-02-28T11:39:26.365Z,13.80
2024-02-28T11:41:56.487Z,14.10
2024-02-28T11:44:23.257Z,13.90
2024-02-28T11:46:54.550Z,13.80
2024-02-28T11:49:23.485Z,13.80
2024-02-28T11:54:17.620Z,14.10
2024-02-28T11:56:44.546Z,13.70
2024-02-28T11:59:15.123Z,13.70
2024-02-28T12:01:45.118Z,13.50
2024-02-28T12:04:14.405Z,13.70
2024-02-28T12:06:41.994Z,13.80
2024-02-28T12:09:10.822Z,13.90
2024-02-28T12:11:38.675Z,13.80
2024-02-28T12:14:09.980Z,13.80
2024-02-28T12:16:43.465Z,13.90
2024-02-28T12:19:11.624Z,13.80
2024-02-28T12:21:41.772Z,13.60
2024-02-28T12:24:12.229Z,13.40
2024-02-28T12:26:40.109Z,13.90
2024-02-28T12:29:07.587Z,13.80
2024-02-28T12:31:36.810Z,13.70
2024-02-28T12:34:05.140Z,14.10
2024-02-28T12:36:33.694Z,13.90
2024-02-28T12:39:00.769Z,14.00
2024-02-28T12:41:28.310Z,13.90
2024-02-28T12:43:57.865Z,13.80
2024-02-28T12:46:24.569Z,13.70
2024-02-28T12:48:51.328Z,14.10
2024-02-28T12:51:38.871Z,13.90
2024-02-28T12:54:06.158Z,13.70
2024-02-28T12:56:33.005Z,13.80
2024-02-28T12:59:00.216Z,13.80
2024-02-28T13:01:27.934Z,13.60
2024-02-28T13:06:23.048Z,13.60
2024-02-28T13:11:21.629Z,13.50
2024-02-28T13:13:52.687Z,13.70
2024-02-28T13:16:24.657Z,13.80
2024-02-28T13:18:51.493Z,13.80
2024-02-28T13:21:18.436Z,13.90
2024-02-28T13:23:47.410Z,13.90
2024-02-28T13:26:19.866Z,14.00
2024-02-28T13:31:22.525Z,14.00
2024-02-28T13:41:14.224Z,14.60
2024-02-28T13:43:43.112Z,14.70
2024-02-28T13:46:12.172Z,14.80
2024-02-28T13:51:06.350Z,14.50
2024-02-28T13:53:33.162Z,14.60
2024-02-28T14:03:42.708Z,14.50
2024-02-28T14:06:12.159Z,14.60
2024-02-28T14:08:43.190Z,15.00
2024-02-28T14:11:11.052Z,14.50
2024-02-28T14:16:07.904Z,15.00
2024-02-28T14:18:34.825Z,14.70
2024-02-28T14:23:34.028Z,14.90
2024-02-28T14:26:00.799Z,14.70
2024-02-28T14:28:27.516Z,14.80
2024-02-28T14:33:22.481Z,15.00
2024-02-28T14:35:52.794Z,15.00
2024-02-28T14:38:21.802Z,15.10
2024-02-28T14:40:48.650Z,15.70
2024-02-28T14:43:17.629Z,14.90
2024-02-28T14:45:44.429Z,14.50
2024-02-28T14:48:11.443Z,14.70
2024-02-28T14:50:40.680Z,14.40
2024-02-28T14:53:09.805Z,14.40
2024-02-28T14:58:03.779Z,14.30
2024-02-28T15:03:00.079Z,14.30
2024-02-28T15:05:29.281Z,14.30
2024-02-28T15:15:17.980Z,14.00
2024-02-28T15:17:47.124Z,14.00
2024-02-28T15:20:13.869Z,14.30
2024-02-28T15:22:40.783Z,13.80
2024-02-28T15:25:12.733Z,13.60
2024-02-28T15:27:42.171Z,13.90
2024-02-28T15:30:09.612Z,13.80
2024-02-28T15:32:40.744Z,13.70
2024-02-28T15:35:09.233Z,13.70
2024-02-28T15:40:07.110Z,13.60
2024-02-28T15:42:34.901Z,13.60
2024-02-28T15:45:01.785Z,13.50
2024-02-28T15:47:34.285Z,13.30
2024-02-28T15:54:58.226Z,13.10
2024-02-28T15:57:27.572Z,13.10
2024-02-28T15:59:54.331Z,12.90
2024-02-28T16:04:50.842Z,12.80
2024-02-28T16:07:20.119Z,13.00
2024-02-28T16:09:46.923Z,12.80
2024-02-28T16:14:43.298Z,12.70
2024-02-28T16:17:16.523Z,12.30
2024-02-28T16:19:43.812Z,12.20
2024-02-28T16:22:12.894Z,12.20
2024-02-28T16:24:39.759Z,12.60
2024-02-28T16:27:06.760Z,12.10
2024-02-28T16:29:36.230Z,12.20
2024-02-28T16:34:30.338Z,11.80
2024-02-28T16:36:58.720Z,11.80
2024-02-28T16:39:27.997Z,11.90
2024-02-28T16:41:56.860Z,11.80
2024-02-28T16:44:25.762Z,11.70
2024-02-28T16:51:48.640Z,11.50
2024-02-28T16:54:15.465Z,11.50
2024-02-28T16:56:44.661Z,11.40
2024-02-28T16:59:14.286Z,11.20
2024-02-28T17:01:43.829Z,11.30
2024-02-28T17:06:40.565Z,11.00
2024-02-28T17:09:10.167Z,11.20
2024-02-28T17:11:39.206Z,10.80
2024-02-28T17:14:06.014Z,10.70
2024-02-28T17:16:37.949Z,10.80
2024-02-28T17:21:36.605Z,10.50
2024-02-28T17:24:05.594Z,10.70
2024-02-28T17:26:36.699Z,10.60
2024-02-28T17:29:04.429Z,10.30
2024-02-28T17:31:33.324Z,10.20
2024-02-28T17:34:00.076Z,10.30
2024-02-28T17:38:56.523Z,10.00
2024-02-28T17:41:23.311Z,10.00
2024-02-28T17:43:52.651Z,10.10
2024-02-28T17:46:19.554Z,9.80
2024-02-28T17:51:13.498Z,9.80
2024-02-28T17:53:42.438Z,9.70
2024-02-28T17:58:36.700Z,9.60
2024-02-28T18:03:36.023Z,9.50
2024-02-28T18:06:02.933Z,9.40
2024-02-28T18:08:31.226Z,9.50
2024-02-28T18:13:25.183Z,9.30
2024-02-28T18:15:54.361Z,9.20
2024-02-28T18:18:23.383Z,9.20
2024-02-28T18:20:54.813Z,9.10
2024-02-28T18:23:30.346Z,9.00
2024-02-28T18:26:01.223Z,9.00
2024-02-28T18:28:27.952Z,9.20
2024-02-28T18:30:56.936Z,8.90
2024-02-28T18:38:22.501Z,8.60
2024-02-28T18:40:51.364Z,8.70
2024-02-28T18:43:20.730Z,8.80
2024-02-28T18:45:47.608Z,8.70
2024-02-28T18:48:15.336Z,8.70
2024-02-28T18:50:42.718Z,8.60
2024-02-28T18:53:09.491Z,8.50
2024-02-28T18:55:38.444Z,9.10
2024-02-28T19:00:32.914Z,9.40
2024-02-28T19:03:03.249Z,9.50
2024-02-28T19:10:24.355Z,9.30
2024-02-28T19:15:18.385Z,10.30
2024-02-28T19:20:15.004Z,9.70
2024-02-28T19:22:44.297Z,10.40
2024-02-28T19:27:39.067Z,9.90
2024-02-28T19:30:06.495Z,9.80
2024-02-28T19:32:33.258Z,9.90
2024-02-28T19:39:58.384Z,10.20
2024-02-28T19:42:25.139Z,10.90
2024-02-28T19:44:51.904Z,10.70
2024-02-28T19:47:18.674Z,10.70
2024-02-28T19:49:47.621Z,11.40
2024-02-28T19:54:44.094Z,11.30
2024-02-28T19:57:10.824Z,11.30
2024-02-28T19:59:40.101Z,11.60
2024-02-28T20:02:07.043Z,11.10
2024-02-28T20:07:01.135Z,11.10
2024-02-28T20:09:27.872Z,11.70
2024-02-28T20:11:54.959Z,11.80
2024-02-28T20:14:23.889Z,12.00
2024-02-28T20:16:50.565Z,11.40
2024-02-28T20:19:17.364Z,11.40
2024-02-28T20:21:44.295Z,11.60
2024-02-28T20:24:11.124Z,10.80
2024-02-28T20:26:37.867Z,11.10
2024-02-28T20:29:04.655Z,11.10
2024-02-28T20:31:35.799Z,10.80
2024-02-28T20:34:02.541Z,10.60
2024-02-28T20:39:00.333Z,11.50
2024-02-28T20:41:27.496Z,11.20
2024-02-28T20:48:54.188Z,11.20
2024-02-28T20:51:23.349Z,11.20
2024-02-28T20:53:55.597Z,11.10
2024-02-28T20:56:28.354Z,10.60
2024-02-28T20:58:56.457Z,11.30
2024-02-28T21:01:30.351Z,11.20
2024-02-28T21:04:00.325Z,11.30
2024-02-28T21:06:28.173Z,10.50
2024-02-28T21:08:57.892Z,11.00
2024-02-28T21:11:27.496Z,10.20
2024-02-28T21:13:55.344Z,10.30
2024-02-28T21:16:22.860Z,10.30
2024-02-28T21:18:53.071Z,10.70
2024-02-28T21:21:20.297Z,10.00
2024-02-28T21:23:47.171Z,10.10
2024-02-28T21:26:14.765Z,10.00
2024-02-28T21:28:42.103Z,10.10
2024-02-28T21:31:08.997Z,11.00
2024-02-28T21:33:35.896Z,11.20
2024-02-28T21:36:03.411Z,10.60
2024-02-28T21:38:30.722Z,10.80
2024-02-28T21:40:57.461Z,10.60
2024-02-28T21:43:24.278Z,10.90
2024-02-28T21:45:51.114Z,10.70
2024-02-28T21:48:20.118Z,10.80
2024-02-28T21:50:46.792Z,10.60
2024-02-28T21:53:13.750Z,10.60
2024-02-28T21:55:40.521Z,10.50
2024-02-28T22:03:04.316Z,10.70
2024-02-28T22:05:31.400Z,9.90
2024-02-28T22:08:00.730Z,10.10
2024-02-28T22:10:27.477Z,9.90
2024-02-28T22:12:54.330Z,10.40
2024-02-28T22:15:23.823Z,10.50
2024-02-28T22:20:21.442Z,9.80
2024-02-28T22:22:48.208Z,9.90
2024-02-28T22:25:15.046Z,10.00
2024-02-28T22:27:44.117Z,10.70
2024-02-28T22:30:11.163Z,10.70
2024-02-28T22:32:38.065Z,10.50
2024-02-28T22:35:06.265Z,11.70
2024-02-28T22:37:34.263Z,10.20
2024-02-28T22:40:08.059Z,10.50
2024-02-28T22:42:37.342Z,10.90
2024-02-28T22:45:04.374Z,10.70
2024-02-28T22:49:58.396Z,10.90
2024-02-28T22:52:25.124Z,10.70
2024-02-28T22:54:51.920Z,10.00
2024-02-28T22:57:23.264Z,9.80
2024-02-28T22:59:50.552Z,9.80
2024-02-28T23:02:17.330Z,10.10
2024-02-28T23:04:48.752Z,10.10
2024-02-28T23:07:15.611Z,9.90
2024-02-28T23:09:42.538Z,9.70
2024-02-28T23:12:09.540Z,9.80
2024-02-28T23:14:36.231Z,10.20
2024-02-28T23:17:05.592Z,10.20
2024-02-28T23:19:37.445Z,10.70
2024-02-28T23:22:04.340Z,11.20
2024-02-28T23:24:31.082Z,10.80
2024-02-28T23:27:02.384Z,11.20
2024-02-28T23:29:33.691Z,11.10
2024-02-28T23:32:02.736Z,11.10
2024-02-28T23:34:32.004Z,11.40
2024-02-28T23:36:58.902Z,11.20
2024-02-28T23:39:28.153Z,10.90
2024-02-28T23:41:54.856Z,11.30
2024-02-28T23:44:23.777Z,11.40
2024-02-28T23:46:52.753Z,11.30
2024-02-28T23:49:21.881Z,11.30
2024-02-28T23:51:48.631Z,11.20
2024-02-28T23:54:17.969Z,10.80
2024-02-28T23:56:44.741Z,10.90
2024-02-28T23:59:11.488Z,10.60
